Time;durP1;ratioP1;P1;durP2;ratioP2;P2;SDS_P1;SDS_P2;PMS_P1;PMS_P2;Temp;Humidity;BMP_temperature;BMP_pressure;BME280_temperature;BME280_humidity;BME280_pressure;Samples;Min_cycle;Max_cycle;Signal;HPM_P1;HPM_P2
2022/03/16 00:00:08;;;;;;;27.63;25.10;;;9.00;86.60;;;;;;6242781;23;20412;-84
2022/03/16 00:02:34;;;;;;;29.03;26.43;;;8.90;87.00;;;;;;6242818;23;20563;-84
2022/03/16 00:05:00;;;;;;;29.17;26.57;;;8.90;86.70;;;;;;6242563;23;20382;-84
2022/03/16 00:07:26;;;;;;;28.23;25.57;;;8.90;85.90;;;;;;6243051;23;20393;-84
2022/03/16 00:09:52;;;;;;;29.67;26.93;;;8.90;85.90;;;;;;6242710;23;20202;-84
2022/03/16 00:12:20;;;;;;;30.13;27.33;;;8.90;85.90;;;;;;6242610;23;20487;-84
2022/03/16 00:14:48;;;;;;;28.47;25.87;;;8.80;85.80;;;;;;6242424;23;20186;-84
2022/03/16 00:17:14;;;;;;;29.20;26.50;;;8.80;87.30;;;;;;6242732;23;20725;-84
2022/03/16 00:19:40;;;;;;;30.07;27.27;;;8.90;85.70;;;;;;6242242;23;20382;-83
2022/03/16 00:22:07;;;;;;;31.73;28.73;;;9.00;84.20;;;;;;6242374;23;20187;-84
2022/03/16 00:24:33;;;;;;;29.07;26.50;;;8.90;84.70;;;;;;6242345;23;20431;-84
2022/03/16 00:26:58;;;;;;;30.63;27.93;;;8.90;85.60;;;;;;6242513;23;20386;-84
2022/03/16 00:29:24;;;;;;;32.30;29.33;;;8.90;85.10;;;;;;6242325;23;20401;-84
2022/03/16 00:31:50;;;;;;;32.20;29.07;;;8.80;85.80;;;;;;6242573;23;20254;-84
2022/03/16 00:34:16;;;;;;;32.47;29.17;;;8.80;87.80;;;;;;6242477;23;20550;-84
2022/03/16 00:36:41;;;;;;;31.77;28.77;;;8.90;86.90;;;;;;6241772;23;20465;-84
2022/03/16 00:39:07;;;;;;;32.70;29.80;;;8.90;85.60;;;;;;6242625;23;20540;-84
2022/03/16 00:41:35;;;;;;;32.53;29.53;;;8.90;84.80;;;;;;6243950;23;20534;-84
2022/03/16 00:44:01;;;;;;;35.00;31.80;;;8.90;84.00;;;;;;6242268;23;20226;-84
2022/03/16 00:46:26;;;;;;;32.63;29.57;;;9.00;83.60;;;;;;6242600;23;20807;-84
2022/03/16 00:48:52;;;;;;;33.97;31.00;;;8.90;83.80;;;;;;6242432;23;20461;-84
2022/03/16 00:51:18;;;;;;;33.77;30.60;;;8.90;83.70;;;;;;6242811;23;20607;-84
2022/03/16 00:53:45;;;;;;;32.67;29.60;;;8.90;84.50;;;;;;6242003;23;20216;-84
2022/03/16 00:56:12;;;;;;;34.13;30.90;;;8.80;84.50;;;;;;6242033;23;20234;-84
2022/03/16 00:58:40;;;;;;;34.03;30.80;;;8.90;84.00;;;;;;6241988;23;20465;-84
2022/03/16 01:01:06;;;;;;;34.63;31.33;;;8.80;85.00;;;;;;6241809;23;20811;-84
2022/03/16 01:03:33;;;;;;;35.40;31.80;;;8.80;85.40;;;;;;6242142;23;20408;-84
2022/03/16 01:06:02;;;;;;;34.23;30.90;;;8.80;85.80;;;;;;6242370;23;20882;-84
2022/03/16 01:08:28;;;;;;;34.57;31.17;;;8.80;85.40;;;;;;6242541;23;20378;-84
2022/03/16 01:10:55;;;;;;;36.00;32.40;;;8.80;86.30;;;;;;6243805;23;20392;-84
2022/03/16 01:13:21;;;;;;;35.33;31.83;;;8.80;84.60;;;;;;6242422;23;20413;-84
2022/03/16 01:15:46;;;;;;;34.30;31.10;;;8.80;85.00;;;;;;6241803;23;20378;-84
2022/03/16 01:18:12;;;;;;;40.13;36.17;;;8.80;84.80;;;;;;6242126;23;20504;-84
2022/03/16 01:20:41;;;;;;;39.30;35.43;;;8.90;84.30;;;;;;6241605;23;20563;-84
2022/03/16 01:23:07;;;;;;;37.27;33.70;;;8.80;84.30;;;;;;6242365;23;20530;-84
2022/03/16 01:25:32;;;;;;;36.87;33.43;;;8.70;84.00;;;;;;6241661;23;20405;-84
2022/03/16 01:27:58;;;;;;;36.33;32.93;;;8.70;85.80;;;;;;6242117;23;20217;-84
2022/03/16 01:30:24;;;;;;;39.80;36.00;;;8.70;87.00;;;;;;6242026;23;20187;-84
2022/03/16 01:32:49;;;;;;;36.83;33.40;;;8.70;87.00;;;;;;6240862;23;20593;-84
2022/03/16 01:35:16;;;;;;;38.93;35.23;;;8.70;85.80;;;;;;6242124;23;20312;-84
2022/03/16 01:37:43;;;;;;;38.77;34.97;;;8.70;87.00;;;;;;6241512;23;20166;-85
2022/03/16 01:40:10;;;;;;;37.63;33.80;;;8.70;88.00;;;;;;6241872;23;20410;-84
2022/03/16 01:42:39;;;;;;;38.53;34.60;;;8.70;88.60;;;;;;6241589;23;20429;-84
2022/03/16 01:45:05;;;;;;;40.60;36.07;;;8.80;87.00;;;;;;6241584;23;20428;-84
2022/03/16 01:47:31;;;;;;;41.27;36.97;;;8.80;85.60;;;;;;6241692;23;20405;-84
2022/03/16 01:49:57;;;;;;;40.37;35.97;;;8.80;85.70;;;;;;6241764;23;20386;-85
2022/03/16 01:52:28;;;;;;;39.80;35.73;;;8.70;86.30;;;;;;6241535;23;20464;-84
2022/03/16 01:54:58;;;;;;;40.57;36.27;;;8.70;87.20;;;;;;6240531;23;20380;-84
2022/03/16 01:57:27;;;;;;;41.17;36.97;;;8.60;88.90;;;;;;6241409;23;20374;-83
2022/03/16 01:59:53;;;;;;;39.70;35.67;;;8.60;90.10;;;;;;6241616;23;20386;-84
2022/03/16 02:02:19;;;;;;;38.83;35.10;;;8.70;88.20;;;;;;6242105;23;20425;-85
2022/03/16 02:04:44;;;;;;;42.10;37.70;;;8.80;86.50;;;;;;6240753;23;20386;-83
2022/03/16 02:07:10;;;;;;;41.80;37.53;;;8.80;85.40;;;;;;6241945;23;20410;-84
2022/03/16 02:09:36;;;;;;;45.90;41.00;;;8.80;84.70;;;;;;6240165;23;20412;-85
2022/03/16 02:12:03;;;;;;;41.33;37.17;;;8.90;85.50;;;;;;6241523;23;20156;-83
2022/03/16 02:14:29;;;;;;;42.60;38.27;;;8.90;83.80;;;;;;6241628;23;20383;-85
2022/03/16 02:16:56;;;;;;;44.23;38.77;;;9.00;82.60;;;;;;6240426;23;20791;-83
2022/03/16 02:19:22;;;;;;;43.00;38.70;;;8.90;82.10;;;;;;6242352;23;20209;-83
2022/03/16 02:22:00;;;;;;;43.63;39.00;;;8.90;83.30;;;;;;6243555;23;20426;-83
2022/03/16 02:24:26;;;;;;;43.27;38.77;;;8.70;85.70;;;;;;6243330;23;20386;-83
2022/03/16 02:26:52;;;;;;;40.87;36.60;;;8.60;87.20;;;;;;6242466;23;20409;-83
2022/03/16 02:29:21;;;;;;;40.83;36.40;;;8.70;87.40;;;;;;6243273;23;20394;-83
2022/03/16 02:31:47;;;;;;;42.50;37.90;;;8.70;86.50;;;;;;6243066;23;20155;-84
2022/03/16 02:34:12;;;;;;;41.70;37.23;;;8.70;86.60;;;;;;6243995;23;20709;-85
2022/03/16 02:36:38;;;;;;;41.63;37.23;;;8.70;86.70;;;;;;6244147;23;20616;-84
2022/03/16 02:39:04;;;;;;;43.83;39.27;;;8.70;85.30;;;;;;6244201;23;20592;-84
2022/03/16 02:41:30;;;;;;;39.87;35.60;;;8.70;85.20;;;;;;6243530;23;20611;-84
2022/03/16 02:43:56;;;;;;;42.90;38.30;;;8.60;84.60;;;;;;6243112;23;20183;-84
2022/03/16 02:46:22;;;;;;;42.80;38.40;;;8.70;86.20;;;;;;6242928;23;20844;-84
2022/03/16 02:48:48;;;;;;;47.20;42.30;;;8.60;86.20;;;;;;6243169;23;20375;-84
2022/03/16 02:51:14;;;;;;;41.83;37.53;;;8.60;86.80;;;;;;6243057;23;20413;-84
2022/03/16 02:53:43;;;;;;;44.20;39.40;;;8.60;87.80;;;;;;6243400;23;20382;-84
2022/03/16 02:56:08;;;;;;;44.00;39.30;;;8.60;88.00;;;;;;6242868;23;20394;-84
2022/03/16 02:58:34;;;;;;;44.57;39.77;;;8.70;86.30;;;;;;6242997;23;20382;-84
2022/03/16 03:01:00;;;;;;;43.00;38.37;;;8.80;84.40;;;;;;6242718;23;20171;-84
2022/03/16 03:03:26;;;;;;;46.40;40.30;;;8.60;85.60;;;;;;6243503;23;20450;-84
2022/03/16 03:05:52;;;;;;;47.80;41.93;;;8.80;85.80;;;;;;6243340;23;20152;-84
2022/03/16 03:08:18;;;;;;;44.60;39.30;;;8.70;85.60;;;;;;6242664;23;20452;-84
2022/03/16 03:10:48;;;;;;;50.63;41.73;;;8.70;85.40;;;;;;6242047;23;20379;-85
2022/03/16 03:13:20;;;;;;;45.47;39.73;;;8.70;84.70;;;;;;6243584;23;20741;-85
2022/03/16 03:16:11;;;;;;;45.57;40.43;;;8.70;84.50;;;;;;6242051;23;20389;-85
2022/03/16 03:19:15;;;;;;;47.20;40.50;;;8.70;84.90;;;;;;6241941;23;20412;-84
2022/03/16 03:22:14;;;;;;;45.77;38.23;;;8.70;84.50;;;;;;6242789;23;20172;-85
2022/03/16 03:28:17;;;;;;;47.07;41.60;;;8.60;86.50;;;;;;6209396;23;20433;-84
2022/03/16 03:34:33;;;;;;;;;;;;;;;;;;;;;
2022/03/16 03:37:36;;;;;;;50.43;41.10;;;8.50;89.10;;;;;;6237656;23;20485;-85
2022/03/16 03:40:10;;;;;;;47.17;41.87;;;8.60;86.70;;;;;;6242234;23;20389;-85
2022/03/16 03:43:03;;;;;;;44.47;39.80;;;8.60;86.30;;;;;;6241480;23;20491;-85
2022/03/16 03:45:31;;;;;;;48.17;40.70;;;8.60;86.60;;;;;;6241285;23;20469;-85
2022/03/16 03:48:16;;;;;;;;;;;;;;;;;;;;;
2022/03/16 03:50:50;;;;;;;48.53;40.30;;;8.50;88.10;;;;;;6242637;23;20479;-85
2022/03/16 03:53:42;;;;;;;47.87;41.87;;;8.60;88.60;;;;;;6241230;23;20385;-85
2022/03/16 03:56:24;;;;;;;;;;;;;;;;;;;;;
2022/03/16 03:58:56;;;;;;;50.40;42.30;;;8.70;85.70;;;;;;6242862;23;20430;-85
2022/03/16 04:01:31;;;;;;;50.03;42.60;;;8.60;86.30;;;;;;6241036;23;20422;-85
2022/03/16 04:05:17;;;;;;;;;;;;;;;;;;;;;
2022/03/16 04:07:58;;;;;;;48.17;42.17;;;8.60;85.90;;;;;;6236063;22;20378;-85
2022/03/16 04:10:40;;;;;;;50.27;44.77;;;8.60;86.60;;;;;;6240454;23;20436;-85
2022/03/16 04:16:47;;;;;;;48.13;43.00;;;8.60;87.60;;;;;;6240271;23;20386;-85
2022/03/16 04:19:32;;;;;;;50.03;43.77;;;8.60;87.70;;;;;;6242046;23;20382;-85
2022/03/16 04:25:28;;;;;;;52.87;44.90;;;8.60;87.80;;;;;;6214616;23;20453;-85
2022/03/16 04:28:03;;;;;;;51.17;45.53;;;8.60;87.10;;;;;;6214880;23;20452;-85
2022/03/16 04:31:01;;;;;;;;;;;;;;;;;;;;;
2022/03/16 04:33:43;;;;;;;;;;;;;;;;;;;;;
2022/03/16 04:36:33;;;;;;;49.60;44.10;;;8.70;85.50;;;;;;6243938;23;20941;-84
2022/03/16 04:39:14;;;;;;;52.30;45.70;;;8.70;86.90;;;;;;6231199;23;20580;-84
2022/03/16 04:41:43;;;;;;;53.40;45.33;;;8.70;86.10;;;;;;6241624;23;20421;-83
2022/03/16 04:44:09;;;;;;;58.17;47.57;;;8.70;85.60;;;;;;6242200;23;20406;-85
2022/03/16 04:46:37;;;;;;;56.03;47.60;;;8.60;87.30;;;;;;6242053;23;20786;-83
2022/03/16 04:49:03;;;;;;;52.77;43.17;;;8.60;88.70;;;;;;6242398;23;20685;-86
2022/03/16 04:51:34;;;;;;;49.97;44.57;;;8.60;89.60;;;;;;6242430;23;20386;-84
2022/03/16 04:54:03;;;;;;;55.40;46.03;;;8.60;88.40;;;;;;6242283;23;20144;-84
2022/03/16 04:56:35;;;;;;;56.20;48.07;;;8.50;89.70;;;;;;6242317;23;20382;-84
2022/03/16 04:59:06;;;;;;;54.57;45.40;;;8.60;89.60;;;;;;6238845;23;20405;-84
2022/03/16 05:01:32;;;;;;;55.17;46.67;;;8.50;87.60;;;;;;6235374;23;20414;-84
2022/03/16 05:03:58;;;;;;;54.90;46.40;;;8.60;87.80;;;;;;6241955;23;20705;-84
2022/03/16 05:06:24;;;;;;;57.70;48.80;;;8.50;89.00;;;;;;6241964;23;20407;-84
2022/03/16 05:08:50;;;;;;;53.43;46.30;;;8.50;89.50;;;;;;6241291;23;20448;-84
2022/03/16 05:11:22;;;;;;;53.77;45.70;;;8.50;89.70;;;;;;6242091;23;20163;-84
2022/03/16 05:13:49;;;;;;;55.27;47.80;;;8.60;89.20;;;;;;6241449;23;20375;-84
2022/03/16 05:16:16;;;;;;;52.17;46.50;;;8.50;89.50;;;;;;6241712;23;20405;-86
2022/03/16 05:18:44;;;;;;;55.47;47.37;;;8.50;90.10;;;;;;6242017;23;20382;-84
2022/03/16 05:21:10;;;;;;;53.90;47.17;;;8.50;90.20;;;;;;6243695;23;20414;-84
2022/03/16 05:23:36;;;;;;;52.13;46.23;;;8.50;90.30;;;;;;6240868;23;20436;-84
2022/03/16 05:26:03;;;;;;;56.27;49.90;;;8.50;90.10;;;;;;6241955;23;20213;-85
2022/03/16 05:28:29;;;;;;;60.67;48.53;;;8.60;90.10;;;;;;6241760;23;20375;-84
2022/03/16 05:30:55;;;;;;;56.00;48.63;;;8.60;87.60;;;;;;6241203;23;20390;-85
2022/03/16 05:33:22;;;;;;;54.40;46.60;;;8.50;90.10;;;;;;6241763;23;20374;-84
2022/03/16 05:35:48;;;;;;;56.83;47.43;;;8.50;89.40;;;;;;6242015;23;20175;-87
2022/03/16 05:38:14;;;;;;;54.33;46.00;;;8.40;90.10;;;;;;6216621;23;20469;-83
2022/03/16 05:40:41;;;;;;;53.23;46.70;;;8.40;90.70;;;;;;6241408;23;20867;-83
2022/03/16 05:43:08;;;;;;;52.50;46.23;;;8.40;90.80;;;;;;6241927;23;20155;-83
2022/03/16 05:45:34;;;;;;;52.13;45.60;;;8.40;90.90;;;;;;6240852;23;20715;-84
2022/03/16 05:48:00;;;;;;;54.60;48.60;;;8.40;91.20;;;;;;6243726;23;20374;-84
2022/03/16 05:50:28;;;;;;;52.27;46.50;;;8.40;91.30;;;;;;6241544;23;20916;-84
2022/03/16 05:52:58;;;;;;;52.80;46.27;;;8.50;91.10;;;;;;6240558;23;20401;-84
2022/03/16 05:55:25;;;;;;;52.90;47.10;;;8.60;90.70;;;;;;6243425;23;20378;-84
2022/03/16 05:57:51;;;;;;;49.17;43.20;;;8.50;90.10;;;;;;6243494;23;20392;-84
2022/03/16 06:00:18;;;;;;;54.20;45.57;;;8.50;90.70;;;;;;6243240;23;20473;-84
2022/03/16 06:02:44;;;;;;;53.07;44.83;;;8.50;90.30;;;;;;6243261;23;20418;-83
2022/03/16 06:05:10;;;;;;;53.90;47.90;;;8.50;90.50;;;;;;6243098;23;20368;-83
2022/03/16 06:07:40;;;;;;;55.27;47.40;;;8.60;90.50;;;;;;6245626;22;20193;-78
2022/03/16 06:10:12;;;;;;;54.10;46.70;;;8.70;89.10;;;;;;6248851;22;20858;-78
2022/03/16 06:12:57;;;;;;;52.87;45.73;;;8.80;87.80;;;;;;6247627;22;20384;-78
2022/03/16 06:15:24;;;;;;;56.10;47.17;;;8.70;87.10;;;;;;6246586;22;20373;-79
2022/03/16 06:17:56;;;;;;;54.07;47.17;;;8.60;88.80;;;;;;6247889;22;20467;-78
2022/03/16 06:20:22;;;;;;;56.33;48.27;;;8.60;89.50;;;;;;6249234;22;20366;-78
2022/03/16 06:22:47;;;;;;;54.90;46.40;;;8.70;87.90;;;;;;6248379;22;20773;-78
2022/03/16 06:25:14;;;;;;;55.83;47.33;;;8.70;88.90;;;;;;6249187;22;20392;-78
2022/03/16 06:27:39;;;;;;;53.67;46.90;;;8.70;88.80;;;;;;6248355;22;20170;-79
2022/03/16 06:30:09;;;;;;;53.50;46.63;;;8.60;89.90;;;;;;6248468;22;20369;-79
2022/03/16 06:32:35;;;;;;;52.83;44.30;;;8.70;90.20;;;;;;6275417;22;20525;-80
2022/03/16 06:35:01;;;;;;;56.97;46.20;;;8.60;90.50;;;;;;6248456;22;20417;-79
2022/03/16 06:37:27;;;;;;;53.53;45.57;;;8.60;91.00;;;;;;6248408;22;20377;-79
2022/03/16 06:39:53;;;;;;;54.73;45.20;;;8.60;90.70;;;;;;6248792;22;20393;-79
2022/03/16 06:42:24;;;;;;;55.40;46.43;;;8.60;90.90;;;;;;6248854;22;20185;-79
2022/03/16 06:44:50;;;;;;;52.20;46.50;;;8.70;91.40;;;;;;6248103;22;20214;-79
2022/03/16 06:47:19;;;;;;;60.30;48.10;;;8.80;90.10;;;;;;6248134;22;20412;-80
2022/03/16 06:49:45;;;;;;;55.83;46.77;;;8.70;90.30;;;;;;6248387;22;20245;-78
2022/03/16 06:52:11;;;;;;;54.37;46.37;;;8.70;91.00;;;;;;6248380;22;20421;-77
2022/03/16 06:54:40;;;;;;;55.80;45.10;;;8.70;90.70;;;;;;6247270;22;20385;-77
2022/03/16 07:01:17;;;;;;;54.33;45.57;;;8.80;90.20;;;;;;6172487;22;20928;-81
2022/03/16 07:03:44;;;;;;;55.07;45.40;;;8.70;90.70;;;;;;6246173;22;20393;-80
2022/03/16 07:09:33;;;;;;;59.33;47.30;;;8.80;90.80;;;;;;6181379;23;20391;-80
2022/03/16 07:15:56;;;;;;;50.47;43.40;;;8.80;90.90;;;;;;6151022;23;20443;-81
2022/03/16 07:19:00;;;;;;;55.50;43.37;;;8.90;90.40;;;;;;6151032;23;20904;-80
2022/03/16 07:25:27;;;;;;;43.60;37.70;;;8.80;88.10;;;;;;6216015;22;20423;-81
2022/03/16 07:30:53;;;;;;;47.80;39.70;;;8.80;86.00;;;;;;6121562;23;20396;-81
2022/03/16 07:33:19;;;;;;;45.80;39.60;;;8.80;86.30;;;;;;6163697;23;20876;-81
2022/03/16 07:35:46;;;;;;;46.77;38.70;;;8.80;85.90;;;;;;6185645;23;20445;-81
2022/03/16 07:38:13;;;;;;;48.90;42.45;;;8.80;86.00;;;;;;6211259;23;20444;-81
2022/03/16 07:43:43;;;;;;;46.72;37.85;;;8.90;85.10;;;;;;6273814;22;20440;-82
2022/03/16 07:46:12;;;;;;;40.70;34.37;;;8.90;84.10;;;;;;6248083;22;20154;-82
2022/03/16 07:49:16;;;;;;;41.30;36.93;;;8.80;83.80;;;;;;6244775;22;20393;-82
2022/03/16 07:51:54;;;;;;;38.70;34.50;;;8.90;81.50;;;;;;6245944;22;20854;-82
2022/03/16 07:54:23;;;;;;;37.80;33.77;;;8.90;79.20;;;;;;6246968;22;20377;-79
2022/03/16 07:57:02;;;;;;;39.63;35.40;;;8.80;80.00;;;;;;6247565;22;20700;-82
2022/03/16 07:59:28;;;;;;;39.07;35.03;;;8.80;80.20;;;;;;6247140;22;20853;-81
2022/03/16 08:01:53;;;;;;;38.77;34.97;;;8.80;78.60;;;;;;6246899;22;20421;-81
2022/03/16 08:04:19;;;;;;;38.37;34.30;;;8.70;78.70;;;;;;6246337;22;20151;-81
2022/03/16 08:06:45;;;;;;;39.03;34.97;;;8.80;78.20;;;;;;6246671;22;20173;-81
2022/03/16 08:09:10;;;;;;;37.57;33.63;;;8.70;77.10;;;;;;6247879;22;20143;-81
2022/03/16 08:11:36;;;;;;;36.43;32.73;;;8.70;77.40;;;;;;6246786;22;20196;-81
2022/03/16 08:14:02;;;;;;;36.50;32.80;;;8.70;77.80;;;;;;6247012;22;20242;-81
2022/03/16 08:16:27;;;;;;;37.40;33.47;;;8.70;77.60;;;;;;6246990;22;20178;-87
2022/03/16 08:18:53;;;;;;;36.43;32.83;;;8.70;76.50;;;;;;6247310;22;20477;-81
2022/03/16 08:21:18;;;;;;;36.30;32.70;;;8.70;76.00;;;;;;6248225;22;20193;-81
2022/03/16 08:28:06;;;;;;;;;;;;;;;;;;;;;
2022/03/16 08:30:45;;;;;;;33.60;30.23;;;8.50;77.50;;;;;;6248524;22;20456;-81
2022/03/16 08:33:15;;;;;;;36.30;32.77;;;8.40;77.60;;;;;;6247668;22;20382;-81
2022/03/16 08:35:50;;;;;;;36.83;32.83;;;8.50;77.40;;;;;;6246633;22;20384;-81
2022/03/16 08:42:07;;;;;;;35.40;31.83;;;8.50;78.00;;;;;;6253603;22;20959;-81
2022/03/16 08:45:22;;;;;;;37.10;33.20;;;8.60;77.80;;;;;;6213757;22;20381;-81
2022/03/16 08:48:07;;;;;;;38.67;34.67;;;8.60;77.90;;;;;;6234767;22;20381;-81
2022/03/16 08:50:55;;;;;;;34.60;31.20;;;8.70;77.90;;;;;;6247132;22;20374;-81
2022/03/16 08:53:21;;;;;;;36.73;32.63;;;8.80;77.60;;;;;;6245009;22;20414;-81
2022/03/16 08:59:49;;;;;;;35.83;32.10;;;8.90;76.20;;;;;;6274543;22;20468;-81
2022/03/16 09:05:37;;;;;;;33.60;30.20;;;9.00;75.00;;;;;;6262043;22;20738;-81
2022/03/16 09:08:03;;;;;;;32.57;29.13;;;9.00;75.10;;;;;;6245038;22;20397;-81
2022/03/16 09:10:29;;;;;;;36.57;32.90;;;9.00;75.20;;;;;;6247206;22;20382;-81
2022/03/16 09:13:04;;;;;;;34.73;31.33;;;9.10;75.00;;;;;;6246056;22;20728;-81
2022/03/16 09:15:31;;;;;;;34.07;30.67;;;9.10;75.10;;;;;;6246945;22;20146;-81
2022/03/16 09:18:25;;;;;;;;;;;;;;;;;;;;;
2022/03/16 09:20:51;;;;;;;36.17;32.50;;;9.10;74.60;;;;;;6273535;22;20452;-81
2022/03/16 09:23:31;;;;;;;32.77;29.47;;;9.20;74.60;;;;;;6246212;22;20888;-81
2022/03/16 09:25:58;;;;;;;32.43;29.33;;;9.20;73.60;;;;;;6246869;22;20842;-81
2022/03/16 09:28:31;;;;;;;34.07;30.60;;;9.30;73.50;;;;;;6246660;22;20380;-81
2022/03/16 09:31:19;;;;;;;;;;;;;;;;;;;;;
2022/03/16 09:33:48;;;;;;;34.63;31.17;;;9.20;73.40;;;;;;6275033;22;20464;-81
2022/03/16 09:36:45;;;;;;;33.97;30.30;;;9.30;74.00;;;;;;6249168;22;20385;-81
2022/03/16 09:39:27;;;;;;;34.23;30.83;;;9.40;74.60;;;;;;6249519;22;20865;-81
2022/03/16 09:42:05;;;;;;;34.57;31.10;;;9.30;72.10;;;;;;6248338;22;20499;-83
2022/03/16 09:44:31;;;;;;;36.87;32.93;;;9.30;74.00;;;;;;6249595;22;20384;-81
2022/03/16 09:46:58;;;;;;;35.67;31.90;;;9.30;74.60;;;;;;6249561;22;20444;-81
2022/03/16 09:49:28;;;;;;;35.30;31.50;;;9.40;74.00;;;;;;6249815;22;20373;-84
2022/03/16 09:51:55;;;;;;;36.77;32.57;;;9.50;73.80;;;;;;6250431;22;20421;-90
2022/03/16 09:54:22;;;;;;;35.57;32.10;;;9.60;74.20;;;;;;6249837;22;20387;-87
2022/03/16 09:56:49;;;;;;;33.63;30.20;;;9.60;73.80;;;;;;6249831;22;20512;-84
2022/03/16 09:59:46;;;;;;;34.30;30.87;;;9.60;72.90;;;;;;6249957;22;20854;-85
2022/03/16 10:02:28;;;;;;;35.07;31.47;;;9.60;73.30;;;;;;6250159;22;20444;-85
2022/03/16 10:05:19;;;;;;;34.40;31.10;;;9.60;72.70;;;;;;6249644;22;20920;-85
2022/03/16 10:08:02;;;;;;;36.77;32.77;;;9.60;72.70;;;;;;6248227;22;20744;-85
2022/03/16 10:13:33;;;;;;;35.40;31.80;;;9.80;74.10;;;;;;6274563;22;20399;-86
2022/03/16 10:19:16;;;;;;;34.03;30.77;;;10.00;70.80;;;;;;6267351;22;20392;-85
2022/03/16 10:22:05;;;;;;;32.83;29.57;;;10.10;70.00;;;;;;6247884;22;20431;-85
2022/03/16 10:24:50;;;;;;;33.00;29.47;;;10.10;70.90;;;;;;6247823;22;20369;-86
2022/03/16 10:27:18;;;;;;;32.10;28.77;;;10.20;68.40;;;;;;6246813;22;20473;-85
2022/03/16 10:29:46;;;;;;;37.83;30.93;;;10.20;68.40;;;;;;6246872;22;20385;-85
2022/03/16 10:32:12;;;;;;;33.27;29.73;;;10.30;67.30;;;;;;6247852;22;20378;-86
2022/03/16 10:34:52;;;;;;;31.83;28.77;;;10.40;67.60;;;;;;6246833;22;20887;-86
2022/03/16 10:37:20;;;;;;;31.10;28.10;;;10.40;68.40;;;;;;6247211;22;20157;-86
2022/03/16 10:39:48;;;;;;;29.90;26.90;;;10.50;67.70;;;;;;6246914;22;20399;-86
2022/03/16 10:48:02;;;;;;;27.47;24.50;;;10.70;61.90;;;;;;6274427;22;20395;-86
2022/03/16 10:50:28;;;;;;;27.23;24.73;;;10.80;60.60;;;;;;6248030;22;20972;-86
2022/03/16 10:52:54;;;;;;;28.83;25.93;;;10.90;61.90;;;;;;6247898;22;20386;-86
2022/03/16 10:55:21;;;;;;;27.70;24.90;;;10.90;60.60;;;;;;6247866;22;20405;-86
2022/03/16 10:57:50;;;;;;;26.23;23.83;;;10.90;58.50;;;;;;6248114;22;20412;-86
2022/03/16 11:00:17;;;;;;;27.70;25.10;;;10.90;60.00;;;;;;6248236;22;20377;-86
2022/03/16 11:02:45;;;;;;;28.13;25.60;;;10.90;58.20;;;;;;6246621;22;20430;-86
2022/03/16 11:05:11;;;;;;;25.63;23.43;;;11.00;58.80;;;;;;6247661;22;20373;-86
2022/03/16 11:07:39;;;;;;;26.17;23.77;;;10.90;59.90;;;;;;6247561;22;20390;-86
2022/03/16 11:10:07;;;;;;;25.83;23.53;;;11.00;59.30;;;;;;6247279;22;20377;-86
2022/03/16 11:15:19;;;;;;;26.03;23.73;;;11.20;58.50;;;;;;6274761;22;20361;-85
2022/03/16 11:17:45;;;;;;;26.30;23.70;;;11.20;57.70;;;;;;6247268;22;20413;-86
2022/03/16 11:20:12;;;;;;;26.53;24.23;;;11.10;57.10;;;;;;6248068;22;20385;-86
2022/03/16 11:25:48;;;;;;;25.10;23.10;;;11.30;57.30;;;;;;6274142;22;20353;-86
2022/03/16 11:28:21;;;;;;;27.00;24.67;;;11.30;57.00;;;;;;6247571;22;20405;-86
2022/03/16 11:30:54;;;;;;;27.80;25.30;;;11.30;57.70;;;;;;6247312;22;20369;-86
2022/03/16 11:33:19;;;;;;;27.37;24.97;;;11.40;56.80;;;;;;6246701;22;20866;-86
2022/03/16 11:35:45;;;;;;;28.60;25.97;;;11.40;58.40;;;;;;6247162;22;20439;-86
2022/03/16 11:38:13;;;;;;;27.73;25.23;;;11.40;56.60;;;;;;6247473;22;20165;-86
2022/03/16 11:40:43;;;;;;;28.97;26.07;;;11.40;56.80;;;;;;6246133;22;20154;-86
2022/03/16 11:43:12;;;;;;;22.98;20.67;;;11.50;56.40;;;;;;6246449;22;20867;-86
2022/03/16 11:45:41;;;;;;;20.33;17.57;;;11.50;56.70;;;;;;6246812;22;20157;-86
2022/03/16 11:48:26;;;;;;;21.13;17.73;;;11.60;58.10;;;;;;6247683;22;21009;-86
2022/03/16 11:51:13;;;;;;;18.20;16.30;;;11.60;56.20;;;;;;6247312;22;20456;-86
2022/03/16 11:56:41;;;;;;;35.23;31.60;;;11.70;56.50;;;;;;6274379;22;20353;-87
2022/03/16 11:59:16;;;;;;;27.20;24.80;;;11.70;56.50;;;;;;6247651;22;20380;-86
2022/03/16 12:01:52;;;;;;;24.40;22.10;;;11.80;56.40;;;;;;6246408;22;20531;-86
2022/03/16 12:04:33;;;;;;;24.80;22.50;;;11.80;56.40;;;;;;6247398;22;20849;-86
2022/03/16 12:07:05;;;;;;;23.83;21.83;;;11.90;55.70;;;;;;6247609;22;20456;-86
2022/03/16 12:09:31;;;;;;;24.27;22.17;;;12.00;56.50;;;;;;6246686;22;20447;-86
2022/03/16 12:15:21;;;;;;;26.03;23.37;;;12.10;53.40;;;;;;6274308;22;20605;-86
2022/03/16 12:17:56;;;;;;;23.33;21.40;;;12.10;54.60;;;;;;6246323;22;20889;-86
2022/03/16 12:20:28;;;;;;;26.27;23.77;;;12.10;53.60;;;;;;6247070;22;20535;-86
2022/03/16 12:23:00;;;;;;;26.90;24.50;;;12.10;54.80;;;;;;6246449;22;20679;-87
2022/03/16 12:25:30;;;;;;;21.13;18.17;;;12.10;53.50;;;;;;6246273;22;20478;-86
2022/03/16 12:31:03;;;;;;;18.17;16.27;;;12.10;54.60;;;;;;6273612;22;20348;-86
2022/03/16 12:33:37;;;;;;;18.60;16.63;;;12.10;56.20;;;;;;6273263;22;20405;-86
2022/03/16 12:36:12;;;;;;;18.50;14.87;;;12.00;53.90;;;;;;6274296;22;20357;-86
2022/03/16 12:38:42;;;;;;;23.63;16.40;;;12.00;53.70;;;;;;6244959;22;20388;-86
2022/03/16 12:44:12;;;;;;;18.17;15.77;;;12.10;54.80;;;;;;6274259;22;20353;-86
2022/03/16 12:47:21;;;;;;;24.70;22.63;;;12.20;55.30;;;;;;6245683;22;20476;-86
2022/03/16 12:49:50;;;;;;;17.30;15.60;;;12.20;52.70;;;;;;6153866;23;20388;-86
2022/03/16 12:52:30;;;;;;;;;;;;;;;;;;;;;
2022/03/16 12:55:01;;;;;;;19.50;16.73;;;12.30;53.50;;;;;;6265524;22;20472;-87
2022/03/16 12:57:29;;;;;;;19.40;15.60;;;12.30;53.40;;;;;;6247368;22;20407;-88
2022/03/16 13:00:12;;;;;;;16.20;14.50;;;12.20;52.50;;;;;;6247722;22;20452;-86
2022/03/16 13:02:44;;;;;;;17.10;15.30;;;12.20;53.90;;;;;;6244853;22;20404;-87
2022/03/16 13:05:12;;;;;;;17.67;15.83;;;12.30;54.20;;;;;;6247538;22;20520;-88
2022/03/16 13:08:11;;;;;;;16.80;15.03;;;12.30;53.60;;;;;;6243941;22;20465;-80
2022/03/16 13:13:37;;;;;;;19.33;16.10;;;12.40;53.50;;;;;;6273521;22;20500;-82
2022/03/16 13:16:05;;;;;;;16.23;14.67;;;12.40;52.90;;;;;;6246179;22;20701;-82
2022/03/16 13:18:34;;;;;;;16.33;14.83;;;12.50;53.10;;;;;;6246262;22;20388;-82
2022/03/16 13:21:00;;;;;;;15.47;14.07;;;12.50;51.70;;;;;;6246576;22;20867;-82
2022/03/16 13:23:31;;;;;;;23.93;16.90;;;12.50;52.00;;;;;;6246065;22;20412;-81
2022/03/16 13:26:10;;;;;;;15.80;14.30;;;12.60;51.60;;;;;;6246982;22;20870;-80
2022/03/16 13:28:45;;;;;;;17.23;15.53;;;12.60;51.30;;;;;;6247140;22;20381;-81
2022/03/16 13:31:11;;;;;;;14.57;13.23;;;12.70;51.90;;;;;;6246717;22;20369;-80
2022/03/16 13:33:36;;;;;;;16.90;15.20;;;12.70;50.10;;;;;;6246064;22;20438;-81
2022/03/16 13:36:09;;;;;;;16.30;14.63;;;12.70;51.80;;;;;;6246984;22;20155;-81
2022/03/16 13:38:37;;;;;;;18.47;16.63;;;12.70;50.80;;;;;;6246507;22;20143;-82
2022/03/16 13:42:04;;;;;;;18.10;16.40;;;12.80;52.20;;;;;;6246176;22;20376;-82
2022/03/16 13:44:23;;;;;;;17.27;15.43;;;12.90;49.60;;;;;;6199627;22;20373;-82
2022/03/16 13:46:58;;;;;;;18.73;17.03;;;13.00;49.50;;;;;;6246213;22;20435;-82
2022/03/16 13:49:42;;;;;;;17.47;15.20;;;13.10;50.20;;;;;;6246762;22;20365;-81
2022/03/16 13:52:20;;;;;;;20.73;14.37;;;13.10;50.80;;;;;;6247717;22;20378;-83
2022/03/16 13:55:53;;;;;;;17.00;15.20;;;13.10;51.20;;;;;;6245871;22;20427;-82
2022/03/16 13:58:57;;;;;;;16.70;15.10;;;13.00;50.70;;;;;;6240517;23;20389;-86
2022/03/16 14:04:24;;;;;;;16.60;14.90;;;12.90;49.40;;;;;;6257417;22;20396;-86
2022/03/16 14:07:30;;;;;;;;;;;;;;;;;;;;;
2022/03/16 14:10:41;;;;;;;16.37;14.80;;;13.00;50.70;;;;;;6266252;22;20487;-84
2022/03/16 14:13:10;;;;;;;18.00;16.10;;;13.10;50.10;;;;;;6240711;23;20443;-85
2022/03/16 14:15:36;;;;;;;16.60;14.90;;;13.10;50.90;;;;;;6246465;22;20385;-86
2022/03/16 14:18:23;;;;;;;15.80;14.27;;;13.00;51.40;;;;;;6248471;22;20392;-86
2022/03/16 14:21:16;;;;;;;15.13;13.63;;;13.10;50.80;;;;;;6275888;22;20358;-89
2022/03/16 14:23:44;;;;;;;17.70;16.07;;;13.10;49.90;;;;;;6247967;22;20415;-85
2022/03/16 14:26:49;;;;;;;19.90;17.90;;;13.10;50.40;;;;;;6248250;22;20381;-85
2022/03/16 14:29:24;;;;;;;17.70;16.10;;;13.00;50.70;;;;;;6275459;22;20352;-87
2022/03/16 14:31:50;;;;;;;18.23;16.53;;;13.00;50.80;;;;;;6248027;22;20435;-85
2022/03/16 14:34:22;;;;;;;17.63;15.73;;;12.90;51.20;;;;;;6248449;22;20381;-85
2022/03/16 14:36:49;;;;;;;19.10;16.43;;;12.90;50.40;;;;;;6246976;22;20413;-87